sensor_id;sensor_type;location;lat;lon;timestamp;P1;durP1;ratioP1;P2;durP2;ratioP2
76157;SDS011;64907;51.574;6.502;2022-12-07T00:01:16;51.38;;;30.30;;
76157;SDS011;64907;51.574;6.502;2022-12-07T00:03:42;48.88;;;30.52;;
76157;SDS011;64907;51.574;6.502;2022-12-07T00:06:09;45.28;;;30.33;;
76157;SDS011;64907;51.574;6.502;2022-12-07T00:08:35;48.53;;;30.13;;
76157;SDS011;64907;51.574;6.502;2022-12-07T00:11:05;43.42;;;28.02;;
76157;SDS011;64907;51.574;6.502;2022-12-07T00:13:30;43.03;;;28.90;;
76157;SDS011;64907;51.574;6.502;2022-12-07T00:15:55;47.50;;;30.77;;
76157;SDS011;64907;51.574;6.502;2022-12-07T00:18:21;41.50;;;29.88;;
76157;SDS011;64907;51.574;6.502;2022-12-07T00:20:46;53.77;;;33.70;;
76157;SDS011;64907;51.574;6.502;2022-12-07T00:23:11;49.67;;;31.55;;
76157;SDS011;64907;51.574;6.502;2022-12-07T00:25:36;55.47;;;32.92;;
76157;SDS011;64907;51.574;6.502;2022-12-07T00:28:02;54.15;;;32.90;;
76157;SDS011;64907;51.574;6.502;2022-12-07T00:30:27;48.70;;;31.10;;
76157;SDS011;64907;51.574;6.502;2022-12-07T00:32:52;53.15;;;32.88;;
76157;SDS011;64907;51.574;6.502;2022-12-07T00:35:17;49.33;;;32.17;;
76157;SDS011;64907;51.574;6.502;2022-12-07T00:37:42;58.17;;;35.83;;
76157;SDS011;64907;51.574;6.502;2022-12-07T00:40:08;57.87;;;36.73;;
76157;SDS011;64907;51.574;6.502;2022-12-07T00:42:33;51.90;;;35.72;;
76157;SDS011;64907;51.574;6.502;2022-12-07T00:44:58;55.78;;;34.88;;
76157;SDS011;64907;51.574;6.502;2022-12-07T00:47:23;53.00;;;34.80;;
76157;SDS011;64907;51.574;6.502;2022-12-07T00:49:49;57.50;;;33.83;;
76157;SDS011;64907;51.574;6.502;2022-12-07T00:52:14;53.88;;;34.70;;
76157;SDS011;64907;51.574;6.502;2022-12-07T00:54:40;50.57;;;31.17;;
76157;SDS011;64907;51.574;6.502;2022-12-07T00:57:05;50.67;;;32.90;;
76157;SDS011;64907;51.574;6.502;2022-12-07T00:59:30;54.92;;;33.13;;
76157;SDS011;64907;51.574;6.502;2022-12-07T01:01:56;57.85;;;35.85;;
76157;SDS011;64907;51.574;6.502;2022-12-07T01:04:21;54.20;;;36.10;;
76157;SDS011;64907;51.574;6.502;2022-12-07T01:06:46;58.20;;;34.47;;
76157;SDS011;64907;51.574;6.502;2022-12-07T01:09:11;56.78;;;35.45;;
76157;SDS011;64907;51.574;6.502;2022-12-07T01:11:36;55.92;;;33.25;;
76157;SDS011;64907;51.574;6.502;2022-12-07T01:14:02;52.92;;;34.22;;
76157;SDS011;64907;51.574;6.502;2022-12-07T01:16:29;47.75;;;30.90;;
76157;SDS011;64907;51.574;6.502;2022-12-07T01:18:55;60.78;;;36.33;;
76157;SDS011;64907;51.574;6.502;2022-12-07T01:21:25;53.90;;;33.17;;
76157;SDS011;64907;51.574;6.502;2022-12-07T01:23:50;57.83;;;32.95;;
76157;SDS011;64907;51.574;6.502;2022-12-07T01:26:17;54.30;;;32.78;;
76157;SDS011;64907;51.574;6.502;2022-12-07T01:28:42;45.70;;;27.27;;
76157;SDS011;64907;51.574;6.502;2022-12-07T01:31:09;54.20;;;32.97;;
76157;SDS011;64907;51.574;6.502;2022-12-07T01:33:39;45.08;;;29.13;;
76157;SDS011;64907;51.574;6.502;2022-12-07T01:36:05;59.25;;;35.55;;
76157;SDS011;64907;51.574;6.502;2022-12-07T01:38:31;57.80;;;35.25;;
76157;SDS011;64907;51.574;6.502;2022-12-07T01:40:56;48.88;;;29.40;;
76157;SDS011;64907;51.574;6.502;2022-12-07T01:43:22;55.53;;;35.42;;
76157;SDS011;64907;51.574;6.502;2022-12-07T01:45:48;49.97;;;31.30;;
76157;SDS011;64907;51.574;6.502;2022-12-07T01:48:14;57.42;;;35.35;;
76157;SDS011;64907;51.574;6.502;2022-12-07T01:50:41;55.05;;;34.17;;
76157;SDS011;64907;51.574;6.502;2022-12-07T01:53:07;64.03;;;34.88;;
76157;SDS011;64907;51.574;6.502;2022-12-07T01:55:34;60.88;;;37.03;;
76157;SDS011;64907;51.574;6.502;2022-12-07T01:58:00;66.97;;;37.42;;
76157;SDS011;64907;51.574;6.502;2022-12-07T02:00:25;62.80;;;36.50;;
76157;SDS011;64907;51.574;6.502;2022-12-07T02:02:55;59.50;;;35.83;;
76157;SDS011;64907;51.574;6.502;2022-12-07T02:05:22;59.15;;;37.00;;
76157;SDS011;64907;51.574;6.502;2022-12-07T02:07:48;67.45;;;38.13;;
76157;SDS011;64907;51.574;6.502;2022-12-07T02:10:15;70.50;;;37.72;;
76157;SDS011;64907;51.574;6.502;2022-12-07T02:12:40;65.57;;;37.13;;
76157;SDS011;64907;51.574;6.502;2022-12-07T02:15:05;59.90;;;36.25;;
76157;SDS011;64907;51.574;6.502;2022-12-07T02:17:32;67.75;;;38.08;;
76157;SDS011;64907;51.574;6.502;2022-12-07T02:25:09;63.22;;;34.10;;
76157;SDS011;64907;51.574;6.502;2022-12-07T02:30:22;72.85;;;39.72;;
76157;SDS011;64907;51.574;6.502;2022-12-07T02:32:56;76.20;;;38.75;;
76157;SDS011;64907;51.574;6.502;2022-12-07T02:35:26;79.18;;;40.33;;
76157;SDS011;64907;51.574;6.502;2022-12-07T02:40:27;89.82;;;44.38;;
76157;SDS011;64907;51.574;6.502;2022-12-07T02:42:57;97.03;;;42.88;;
76157;SDS011;64907;51.574;6.502;2022-12-07T02:45:23;61.90;;;37.72;;
76157;SDS011;64907;51.574;6.502;2022-12-07T02:47:51;77.68;;;41.17;;
76157;SDS011;64907;51.574;6.502;2022-12-07T02:50:18;66.80;;;37.38;;
76157;SDS011;64907;51.574;6.502;2022-12-07T02:52:44;76.38;;;41.00;;
76157;SDS011;64907;51.574;6.502;2022-12-07T02:55:09;70.97;;;37.80;;
76157;SDS011;64907;51.574;6.502;2022-12-07T02:57:42;75.03;;;40.17;;
76157;SDS011;64907;51.574;6.502;2022-12-07T03:00:11;79.05;;;40.03;;
76157;SDS011;64907;51.574;6.502;2022-12-07T03:03:20;91.40;;;43.88;;
76157;SDS011;64907;51.574;6.502;2022-12-07T03:13:23;76.45;;;38.85;;
76157;SDS011;64907;51.574;6.502;2022-12-07T03:18:32;67.97;;;36.38;;
76157;SDS011;64907;51.574;6.502;2022-12-07T03:21:00;75.80;;;39.15;;
76157;SDS011;64907;51.574;6.502;2022-12-07T03:23:26;61.70;;;35.33;;
76157;SDS011;64907;51.574;6.502;2022-12-07T03:25:53;62.15;;;35.85;;
76157;SDS011;64907;51.574;6.502;2022-12-07T03:28:22;90.47;;;42.67;;
76157;SDS011;64907;51.574;6.502;2022-12-07T03:30:51;67.63;;;38.03;;
76157;SDS011;64907;51.574;6.502;2022-12-07T03:33:19;78.25;;;41.92;;
76157;SDS011;64907;51.574;6.502;2022-12-07T03:35:51;79.90;;;40.33;;
76157;SDS011;64907;51.574;6.502;2022-12-07T03:38:19;73.88;;;40.63;;
76157;SDS011;64907;51.574;6.502;2022-12-07T03:40:49;88.75;;;41.95;;
76157;SDS011;64907;51.574;6.502;2022-12-07T03:43:15;75.18;;;39.05;;
76157;SDS011;64907;51.574;6.502;2022-12-07T03:45:42;78.95;;;40.58;;
76157;SDS011;64907;51.574;6.502;2022-12-07T03:53:33;68.85;;;34.67;;
76157;SDS011;64907;51.574;6.502;2022-12-07T03:56:00;70.38;;;37.72;;
76157;SDS011;64907;51.574;6.502;2022-12-07T03:58:26;62.47;;;35.40;;
76157;SDS011;64907;51.574;6.502;2022-12-07T04:00:52;63.03;;;34.20;;
76157;SDS011;64907;51.574;6.502;2022-12-07T04:03:17;76.20;;;38.38;;
76157;SDS011;64907;51.574;6.502;2022-12-07T04:05:42;65.47;;;35.25;;
76157;SDS011;64907;51.574;6.502;2022-12-07T04:08:08;77.43;;;39.30;;
76157;SDS011;64907;51.574;6.502;2022-12-07T04:10:33;77.72;;;39.25;;
76157;SDS011;64907;51.574;6.502;2022-12-07T04:12:58;78.78;;;38.65;;
76157;SDS011;64907;51.574;6.502;2022-12-07T04:15:23;88.38;;;40.92;;
76157;SDS011;64907;51.574;6.502;2022-12-07T04:17:49;68.43;;;36.80;;
76157;SDS011;64907;51.574;6.502;2022-12-07T04:20:14;65.82;;;35.33;;
76157;SDS011;64907;51.574;6.502;2022-12-07T04:22:39;79.07;;;40.42;;
76157;SDS011;64907;51.574;6.502;2022-12-07T04:25:04;77.68;;;39.13;;
76157;SDS011;64907;51.574;6.502;2022-12-07T04:27:30;80.38;;;38.92;;
76157;SDS011;64907;51.574;6.502;2022-12-07T04:29:55;63.40;;;35.38;;
76157;SDS011;64907;51.574;6.502;2022-12-07T04:32:20;55.17;;;32.97;;
76157;SDS011;64907;51.574;6.502;2022-12-07T04:34:46;51.50;;;30.27;;
76157;SDS011;64907;51.574;6.502;2022-12-07T04:39:42;67.90;;;34.92;;
76157;SDS011;64907;51.574;6.502;2022-12-07T04:42:09;67.03;;;34.90;;
76157;SDS011;64907;51.574;6.502;2022-12-07T04:44:34;55.97;;;30.75;;
76157;SDS011;64907;51.574;6.502;2022-12-07T04:46:59;53.92;;;30.92;;
76157;SDS011;64907;51.574;6.502;2022-12-07T04:49:25;67.90;;;34.00;;
76157;SDS011;64907;51.574;6.502;2022-12-07T04:51:50;48.50;;;29.25;;
76157;SDS011;64907;51.574;6.502;2022-12-07T04:54:16;51.03;;;28.98;;
76157;SDS011;64907;51.574;6.502;2022-12-07T04:56:41;41.53;;;24.65;;
76157;SDS011;64907;51.574;6.502;2022-12-07T04:59:07;59.88;;;33.10;;
76157;SDS011;64907;51.574;6.502;2022-12-07T05:01:32;51.13;;;29.33;;
76157;SDS011;64907;51.574;6.502;2022-12-07T05:03:58;49.15;;;29.40;;
76157;SDS011;64907;51.574;6.502;2022-12-07T05:06:23;47.05;;;27.67;;
76157;SDS011;64907;51.574;6.502;2022-12-07T05:08:48;57.65;;;29.70;;
76157;SDS011;64907;51.574;6.502;2022-12-07T05:11:13;55.55;;;30.63;;
76157;SDS011;64907;51.574;6.502;2022-12-07T05:13:59;42.30;;;27.58;;
76157;SDS011;64907;51.574;6.502;2022-12-07T05:16:24;45.58;;;26.27;;
76157;SDS011;64907;51.574;6.502;2022-12-07T05:18:50;56.70;;;29.63;;
76157;SDS011;64907;51.574;6.502;2022-12-07T05:21:15;62.22;;;30.92;;
76157;SDS011;64907;51.574;6.502;2022-12-07T05:23:40;54.53;;;28.73;;
76157;SDS011;64907;51.574;6.502;2022-12-07T05:26:05;46.72;;;26.00;;
76157;SDS011;64907;51.574;6.502;2022-12-07T05:28:30;43.78;;;26.48;;
76157;SDS011;64907;51.574;6.502;2022-12-07T05:30:55;55.08;;;28.30;;
76157;SDS011;64907;51.574;6.502;2022-12-07T05:33:21;49.43;;;27.43;;
76157;SDS011;64907;51.574;6.502;2022-12-07T05:35:46;46.33;;;27.23;;
76157;SDS011;64907;51.574;6.502;2022-12-07T05:38:11;48.90;;;27.23;;
76157;SDS011;64907;51.574;6.502;2022-12-07T05:40:36;49.38;;;27.05;;
76157;SDS011;64907;51.574;6.502;2022-12-07T05:43:02;55.60;;;26.88;;
76157;SDS011;64907;51.574;6.502;2022-12-07T05:45:27;50.63;;;27.35;;
76157;SDS011;64907;51.574;6.502;2022-12-07T05:47:52;44.53;;;24.83;;
76157;SDS011;64907;51.574;6.502;2022-12-07T05:50:17;46.77;;;24.37;;
76157;SDS011;64907;51.574;6.502;2022-12-07T05:52:42;41.20;;;24.77;;
76157;SDS011;64907;51.574;6.502;2022-12-07T05:55:08;35.58;;;22.58;;
76157;SDS011;64907;51.574;6.502;2022-12-07T05:57:33;47.53;;;24.10;;
76157;SDS011;64907;51.574;6.502;2022-12-07T05:59:58;52.55;;;27.15;;
76157;SDS011;64907;51.574;6.502;2022-12-07T06:02:24;57.10;;;27.63;;
76157;SDS011;64907;51.574;6.502;2022-12-07T06:04:49;46.10;;;24.05;;
76157;SDS011;64907;51.574;6.502;2022-12-07T06:07:15;56.97;;;27.87;;
76157;SDS011;64907;51.574;6.502;2022-12-07T06:09:41;38.95;;;22.45;;
76157;SDS011;64907;51.574;6.502;2022-12-07T06:12:06;73.05;;;28.85;;
76157;SDS011;64907;51.574;6.502;2022-12-07T06:14:50;53.17;;;27.98;;
76157;SDS011;64907;51.574;6.502;2022-12-07T06:17:15;55.45;;;27.83;;
76157;SDS011;64907;51.574;6.502;2022-12-07T06:19:41;63.17;;;30.27;;
76157;SDS011;64907;51.574;6.502;2022-12-07T06:22:06;48.83;;;27.63;;
76157;SDS011;64907;51.574;6.502;2022-12-07T06:24:32;52.40;;;26.90;;
76157;SDS011;64907;51.574;6.502;2022-12-07T06:26:57;52.10;;;27.98;;
76157;SDS011;64907;51.574;6.502;2022-12-07T06:31:51;44.00;;;24.85;;
76157;SDS011;64907;51.574;6.502;2022-12-07T06:34:17;44.00;;;23.30;;
76157;SDS011;64907;51.574;6.502;2022-12-07T06:39:16;48.78;;;24.90;;
76157;SDS011;64907;51.574;6.502;2022-12-07T06:41:41;50.30;;;25.55;;
76157;SDS011;64907;51.574;6.502;2022-12-07T06:44:07;46.63;;;23.33;;
76157;SDS011;64907;51.574;6.502;2022-12-07T06:46:32;40.45;;;22.63;;
76157;SDS011;64907;51.574;6.502;2022-12-07T06:48:57;44.42;;;22.77;;
76157;SDS011;64907;51.574;6.502;2022-12-07T06:51:22;48.55;;;22.00;;
76157;SDS011;64907;51.574;6.502;2022-12-07T06:53:48;34.17;;;18.40;;
76157;SDS011;64907;51.574;6.502;2022-12-07T06:56:14;39.67;;;20.52;;
76157;SDS011;64907;51.574;6.502;2022-12-07T06:58:39;29.25;;;18.38;;
76157;SDS011;64907;51.574;6.502;2022-12-07T07:01:09;41.33;;;22.13;;
76157;SDS011;64907;51.574;6.502;2022-12-07T07:06:02;34.05;;;18.90;;
76157;SDS011;64907;51.574;6.502;2022-12-07T07:08:27;34.25;;;19.05;;
76157;SDS011;64907;51.574;6.502;2022-12-07T07:10:52;27.60;;;16.20;;
76157;SDS011;64907;51.574;6.502;2022-12-07T07:13:18;34.20;;;17.70;;
76157;SDS011;64907;51.574;6.502;2022-12-07T07:15:43;35.50;;;18.17;;
76157;SDS011;64907;51.574;6.502;2022-12-07T07:18:09;31.83;;;17.27;;
76157;SDS011;64907;51.574;6.502;2022-12-07T07:20:34;29.35;;;16.52;;
76157;SDS011;64907;51.574;6.502;2022-12-07T07:22:59;33.60;;;17.70;;
76157;SDS011;64907;51.574;6.502;2022-12-07T07:25:25;45.40;;;21.33;;
76157;SDS011;64907;51.574;6.502;2022-12-07T07:27:50;28.03;;;16.17;;
76157;SDS011;64907;51.574;6.502;2022-12-07T07:30:15;32.30;;;17.83;;
76157;SDS011;64907;51.574;6.502;2022-12-07T07:32:40;32.85;;;17.77;;
76157;SDS011;64907;51.574;6.502;2022-12-07T07:35:06;38.28;;;19.27;;
76157;SDS011;64907;51.574;6.502;2022-12-07T07:37:31;33.00;;;18.98;;
76157;SDS011;64907;51.574;6.502;2022-12-07T07:39:56;33.30;;;19.17;;
76157;SDS011;64907;51.574;6.502;2022-12-07T07:42:21;33.70;;;17.17;;
76157;SDS011;64907;51.574;6.502;2022-12-07T07:44:46;33.03;;;16.73;;
76157;SDS011;64907;51.574;6.502;2022-12-07T07:47:12;36.57;;;17.17;;
76157;SDS011;64907;51.574;6.502;2022-12-07T07:49:37;39.28;;;19.50;;
76157;SDS011;64907;51.574;6.502;2022-12-07T07:52:02;31.13;;;16.63;;
76157;SDS011;64907;51.574;6.502;2022-12-07T07:54:27;32.33;;;17.23;;
76157;SDS011;64907;51.574;6.502;2022-12-07T07:56:52;29.98;;;17.98;;
76157;SDS011;64907;51.574;6.502;2022-12-07T07:59:18;34.63;;;18.03;;
76157;SDS011;64907;51.574;6.502;2022-12-07T08:01:43;28.48;;;17.23;;
76157;SDS011;64907;51.574;6.502;2022-12-07T08:04:08;35.60;;;18.87;;
76157;SDS011;64907;51.574;6.502;2022-12-07T08:06:33;33.72;;;17.15;;
76157;SDS011;64907;51.574;6.502;2022-12-07T08:08:59;35.63;;;19.17;;
76157;SDS011;64907;51.574;6.502;2022-12-07T08:11:24;42.72;;;19.25;;
76157;SDS011;64907;51.574;6.502;2022-12-07T08:13:49;36.97;;;19.48;;
76157;SDS011;64907;51.574;6.502;2022-12-07T08:16:15;34.53;;;19.00;;
76157;SDS011;64907;51.574;6.502;2022-12-07T08:18:40;32.75;;;17.02;;
76157;SDS011;64907;51.574;6.502;2022-12-07T08:21:06;34.65;;;17.65;;
76157;SDS011;64907;51.574;6.502;2022-12-07T08:23:31;34.80;;;18.15;;
76157;SDS011;64907;51.574;6.502;2022-12-07T08:26:11;32.25;;;16.45;;
76157;SDS011;64907;51.574;6.502;2022-12-07T08:28:37;27.83;;;16.73;;
76157;SDS011;64907;51.574;6.502;2022-12-07T08:31:03;29.00;;;17.00;;
76157;SDS011;64907;51.574;6.502;2022-12-07T08:33:29;33.55;;;18.70;;
76157;SDS011;64907;51.574;6.502;2022-12-07T08:35:54;29.58;;;17.67;;
76157;SDS011;64907;51.574;6.502;2022-12-07T08:38:20;34.17;;;16.38;;
76157;SDS011;64907;51.574;6.502;2022-12-07T08:43:24;38.65;;;20.27;;
76157;SDS011;64907;51.574;6.502;2022-12-07T08:45:53;38.72;;;19.15;;
76157;SDS011;64907;51.574;6.502;2022-12-07T08:48:21;29.73;;;17.98;;
76157;SDS011;64907;51.574;6.502;2022-12-07T08:50:49;35.53;;;19.33;;
76157;SDS011;64907;51.574;6.502;2022-12-07T08:53:14;40.60;;;19.77;;
76157;SDS011;64907;51.574;6.502;2022-12-07T08:55:39;35.47;;;18.15;;
76157;SDS011;64907;51.574;6.502;2022-12-07T08:58:04;31.70;;;18.88;;
76157;SDS011;64907;51.574;6.502;2022-12-07T09:00:31;40.50;;;19.38;;
76157;SDS011;64907;51.574;6.502;2022-12-07T09:02:56;30.15;;;17.88;;
76157;SDS011;64907;51.574;6.502;2022-12-07T09:05:21;35.78;;;19.92;;
76157;SDS011;64907;51.574;6.502;2022-12-07T09:07:48;27.65;;;15.85;;
76157;SDS011;64907;51.574;6.502;2022-12-07T09:10:14;32.97;;;17.77;;
76157;SDS011;64907;51.574;6.502;2022-12-07T09:12:39;27.67;;;17.40;;
76157;SDS011;64907;51.574;6.502;2022-12-07T09:15:05;31.85;;;17.33;;
76157;SDS011;64907;51.574;6.502;2022-12-07T09:17:31;34.50;;;16.30;;
76157;SDS011;64907;51.574;6.502;2022-12-07T09:19:57;28.42;;;16.27;;
76157;SDS011;64907;51.574;6.502;2022-12-07T09:22:31;32.47;;;14.40;;
76157;SDS011;64907;51.574;6.502;2022-12-07T09:24:57;25.13;;;12.88;;
76157;SDS011;64907;51.574;6.502;2022-12-07T09:27:22;26.35;;;15.43;;
76157;SDS011;64907;51.574;6.502;2022-12-07T09:29:47;24.77;;;15.35;;
76157;SDS011;64907;51.574;6.502;2022-12-07T09:32:12;17.85;;;12.30;;
76157;SDS011;64907;51.574;6.502;2022-12-07T09:34:38;21.70;;;13.23;;
76157;SDS011;64907;51.574;6.502;2022-12-07T09:37:03;21.05;;;12.75;;
76157;SDS011;64907;51.574;6.502;2022-12-07T09:39:28;18.85;;;12.45;;
76157;SDS011;64907;51.574;6.502;2022-12-07T09:41:53;21.35;;;12.00;;
76157;SDS011;64907;51.574;6.502;2022-12-07T09:44:23;22.20;;;12.10;;
76157;SDS011;64907;51.574;6.502;2022-12-07T09:46:48;20.20;;;11.80;;
76157;SDS011;64907;51.574;6.502;2022-12-07T09:49:17;26.08;;;13.50;;
76157;SDS011;64907;51.574;6.502;2022-12-07T09:51:42;17.88;;;10.60;;
76157;SDS011;64907;51.574;6.502;2022-12-07T09:54:08;16.83;;;10.73;;
76157;SDS011;64907;51.574;6.502;2022-12-07T09:56:34;25.90;;;11.40;;
76157;SDS011;64907;51.574;6.502;2022-12-07T09:59:01;19.60;;;11.30;;
76157;SDS011;64907;51.574;6.502;2022-12-07T10:01:31;16.35;;;10.30;;
76157;SDS011;64907;51.574;6.502;2022-12-07T10:06:30;13.60;;;8.63;;
76157;SDS011;64907;51.574;6.502;2022-12-07T10:08:55;11.73;;;7.65;;
76157;SDS011;64907;51.574;6.502;2022-12-07T10:11:21;11.27;;;6.68;;
76157;SDS011;64907;51.574;6.502;2022-12-07T10:13:47;13.95;;;7.70;;
76157;SDS011;64907;51.574;6.502;2022-12-07T10:18:57;11.80;;;6.35;;
76157;SDS011;64907;51.574;6.502;2022-12-07T10:21:42;16.90;;;6.70;;
76157;SDS011;64907;51.574;6.502;2022-12-07T10:24:23;11.43;;;6.07;;
76157;SDS011;64907;51.574;6.502;2022-12-07T10:26:50;11.45;;;6.15;;
76157;SDS011;64907;51.574;6.502;2022-12-07T10:29:49;14.45;;;6.07;;
76157;SDS011;64907;51.574;6.502;2022-12-07T10:34:41;10.50;;;4.88;;
76157;SDS011;64907;51.574;6.502;2022-12-07T10:39:48;9.55;;;5.20;;
76157;SDS011;64907;51.574;6.502;2022-12-07T10:47:46;8.95;;;4.05;;
76157;SDS011;64907;51.574;6.502;2022-12-07T10:57:51;11.52;;;4.82;;
76157;SDS011;64907;51.574;6.502;2022-12-07T11:00:24;15.98;;;4.50;;
76157;SDS011;64907;51.574;6.502;2022-12-07T11:03:08;11.07;;;4.25;;
76157;SDS011;64907;51.574;6.502;2022-12-07T11:05:43;15.63;;;5.57;;
76157;SDS011;64907;51.574;6.502;2022-12-07T11:10:44;10.10;;;5.43;;
76157;SDS011;64907;51.574;6.502;2022-12-07T11:13:22;7.03;;;5.65;;
76157;SDS011;64907;51.574;6.502;2022-12-07T11:26:07;8.27;;;5.43;;
76157;SDS011;64907;51.574;6.502;2022-12-07T11:28:53;14.38;;;6.97;;
76157;SDS011;64907;51.574;6.502;2022-12-07T11:31:28;10.57;;;5.93;;
76157;SDS011;64907;51.574;6.502;2022-12-07T11:39:00;9.07;;;6.25;;
76157;SDS011;64907;51.574;6.502;2022-12-07T11:41:28;12.02;;;6.18;;
76157;SDS011;64907;51.574;6.502;2022-12-07T11:46:27;10.70;;;6.07;;
76157;SDS011;64907;51.574;6.502;2022-12-07T11:51:21;8.18;;;5.72;;
76157;SDS011;64907;51.574;6.502;2022-12-07T11:56:22;8.15;;;4.88;;
76157;SDS011;64907;51.574;6.502;2022-12-07T11:58:54;9.98;;;5.32;;
76157;SDS011;64907;51.574;6.502;2022-12-07T12:06:34;12.27;;;5.60;;
76157;SDS011;64907;51.574;6.502;2022-12-07T12:09:04;12.63;;;7.32;;
76157;SDS011;64907;51.574;6.502;2022-12-07T12:14:00;15.30;;;6.32;;
76157;SDS011;64907;51.574;6.502;2022-12-07T12:19:02;7.20;;;4.70;;
76157;SDS011;64907;51.574;6.502;2022-12-07T12:21:31;8.23;;;5.32;;
76157;SDS011;64907;51.574;6.502;2022-12-07T12:24:01;9.73;;;5.28;;
76157;SDS011;64907;51.574;6.502;2022-12-07T12:26:29;10.07;;;5.13;;
76157;SDS011;64907;51.574;6.502;2022-12-07T12:28:56;10.02;;;5.40;;
76157;SDS011;64907;51.574;6.502;2022-12-07T12:33:54;14.00;;;5.82;;
76157;SDS011;64907;51.574;6.502;2022-12-07T12:54:15;13.27;;;4.90;;
76157;SDS011;64907;51.574;6.502;2022-12-07T12:59:25;7.43;;;4.53;;
76157;SDS011;64907;51.574;6.502;2022-12-07T13:01:55;4.80;;;3.75;;
76157;SDS011;64907;51.574;6.502;2022-12-07T13:04:25;10.50;;;4.85;;
76157;SDS011;64907;51.574;6.502;2022-12-07T13:07:01;5.10;;;4.00;;
76157;SDS011;64907;51.574;6.502;2022-12-07T13:09:30;6.50;;;4.32;;
76157;SDS011;64907;51.574;6.502;2022-12-07T13:12:11;8.43;;;4.57;;
76157;SDS011;64907;51.574;6.502;2022-12-07T13:17:10;10.90;;;4.28;;
76157;SDS011;64907;51.574;6.502;2022-12-07T13:22:08;5.20;;;4.63;;
76157;SDS011;64907;51.574;6.502;2022-12-07T13:24:49;7.07;;;5.10;;
76157;SDS011;64907;51.574;6.502;2022-12-07T13:27:14;8.98;;;5.03;;
76157;SDS011;64907;51.574;6.502;2022-12-07T13:29:39;9.07;;;3.42;;
76157;SDS011;64907;51.574;6.502;2022-12-07T13:32:04;9.97;;;4.37;;
76157;SDS011;64907;51.574;6.502;2022-12-07T13:34:34;9.57;;;4.78;;
76157;SDS011;64907;51.574;6.502;2022-12-07T13:37:00;7.72;;;3.90;;
76157;SDS011;64907;51.574;6.502;2022-12-07T13:39:26;9.65;;;4.50;;
76157;SDS011;64907;51.574;6.502;2022-12-07T13:41:55;6.60;;;4.00;;
76157;SDS011;64907;51.574;6.502;2022-12-07T13:44:22;11.52;;;4.78;;
76157;SDS011;64907;51.574;6.502;2022-12-07T13:47:03;9.23;;;4.43;;
76157;SDS011;64907;51.574;6.502;2022-12-07T13:49:31;10.32;;;4.65;;
76157;SDS011;64907;51.574;6.502;2022-12-07T13:52:13;9.02;;;4.63;;
76157;SDS011;64907;51.574;6.502;2022-12-07T13:57:34;11.30;;;4.80;;
76157;SDS011;64907;51.574;6.502;2022-12-07T14:00:01;11.27;;;5.72;;
76157;SDS011;64907;51.574;6.502;2022-12-07T14:02:31;8.73;;;4.18;;
76157;SDS011;64907;51.574;6.502;2022-12-07T14:05:07;12.00;;;4.60;;
76157;SDS011;64907;51.574;6.502;2022-12-07T14:07:33;8.20;;;4.75;;
76157;SDS011;64907;51.574;6.502;2022-12-07T14:09:59;12.23;;;4.95;;
76157;SDS011;64907;51.574;6.502;2022-12-07T14:12:25;10.93;;;6.05;;
76157;SDS011;64907;51.574;6.502;2022-12-07T14:14:51;15.80;;;6.03;;
76157;SDS011;64907;51.574;6.502;2022-12-07T14:17:18;8.55;;;5.22;;
76157;SDS011;64907;51.574;6.502;2022-12-07T14:24:49;10.52;;;4.95;;
76157;SDS011;64907;51.574;6.502;2022-12-07T14:27:23;7.43;;;4.88;;
76157;SDS011;64907;51.574;6.502;2022-12-07T14:29:50;10.05;;;4.00;;
76157;SDS011;64907;51.574;6.502;2022-12-07T14:32:18;8.73;;;4.85;;
76157;SDS011;64907;51.574;6.502;2022-12-07T14:34:58;9.63;;;4.75;;
76157;SDS011;64907;51.574;6.502;2022-12-07T14:37:24;9.32;;;5.72;;
76157;SDS011;64907;51.574;6.502;2022-12-07T14:39:49;12.05;;;6.25;;
76157;SDS011;64907;51.574;6.502;2022-12-07T14:42:14;14.13;;;6.85;;
76157;SDS011;64907;51.574;6.502;2022-12-07T14:44:39;16.33;;;6.63;;
76157;SDS011;64907;51.574;6.502;2022-12-07T14:47:05;10.05;;;6.72;;
76157;SDS011;64907;51.574;6.502;2022-12-07T14:49:31;10.85;;;6.45;;
76157;SDS011;64907;51.574;6.502;2022-12-07T14:51:56;10.75;;;6.15;;
76157;SDS011;64907;51.574;6.502;2022-12-07T14:54:21;12.02;;;5.68;;
76157;SDS011;64907;51.574;6.502;2022-12-07T14:56:47;5.35;;;4.47;;
76157;SDS011;64907;51.574;6.502;2022-12-07T14:59:16;13.23;;;5.38;;
76157;SDS011;64907;51.574;6.502;2022-12-07T15:01:44;9.95;;;4.97;;
76157;SDS011;64907;51.574;6.502;2022-12-07T15:06:39;8.70;;;6.60;;
76157;SDS011;64907;51.574;6.502;2022-12-07T15:09:04;10.48;;;6.68;;
76157;SDS011;64907;51.574;6.502;2022-12-07T15:11:30;19.17;;;7.00;;
76157;SDS011;64907;51.574;6.502;2022-12-07T15:13:55;10.40;;;6.90;;
76157;SDS011;64907;51.574;6.502;2022-12-07T15:16:32;14.18;;;7.60;;
76157;SDS011;64907;51.574;6.502;2022-12-07T15:18:58;13.25;;;8.57;;
76157;SDS011;64907;51.574;6.502;2022-12-07T15:21:24;13.55;;;8.25;;
76157;SDS011;64907;51.574;6.502;2022-12-07T15:23:49;17.92;;;7.22;;
76157;SDS011;64907;51.574;6.502;2022-12-07T15:26:14;10.83;;;6.17;;
76157;SDS011;64907;51.574;6.502;2022-12-07T15:28:41;15.95;;;7.15;;
76157;SDS011;64907;51.574;6.502;2022-12-07T15:31:13;13.40;;;7.25;;
76157;SDS011;64907;51.574;6.502;2022-12-07T15:33:38;21.00;;;8.27;;
76157;SDS011;64907;51.574;6.502;2022-12-07T15:36:04;13.98;;;6.72;;
76157;SDS011;64907;51.574;6.502;2022-12-07T15:38:29;12.05;;;6.78;;
76157;SDS011;64907;51.574;6.502;2022-12-07T15:40:55;10.82;;;5.60;;
76157;SDS011;64907;51.574;6.502;2022-12-07T15:43:22;7.50;;;5.88;;
76157;SDS011;64907;51.574;6.502;2022-12-07T15:46:05;10.98;;;5.55;;
76157;SDS011;64907;51.574;6.502;2022-12-07T15:48:31;16.15;;;6.72;;
76157;SDS011;64907;51.574;6.502;2022-12-07T15:51:06;11.63;;;6.05;;
76157;SDS011;64907;51.574;6.502;2022-12-07T15:53:31;9.85;;;6.53;;
76157;SDS011;64907;51.574;6.502;2022-12-07T15:58:26;6.53;;;5.75;;
76157;SDS011;64907;51.574;6.502;2022-12-07T16:00:51;10.82;;;5.78;;
76157;SDS011;64907;51.574;6.502;2022-12-07T16:03:16;7.63;;;5.10;;
76157;SDS011;64907;51.574;6.502;2022-12-07T16:05:54;13.63;;;6.60;;
76157;SDS011;64907;51.574;6.502;2022-12-07T16:08:19;11.45;;;5.50;;
76157;SDS011;64907;51.574;6.502;2022-12-07T16:10:44;6.13;;;5.53;;
76157;SDS011;64907;51.574;6.502;2022-12-07T16:13:12;6.68;;;4.72;;
76157;SDS011;64907;51.574;6.502;2022-12-07T16:15:41;11.07;;;5.97;;
76157;SDS011;64907;51.574;6.502;2022-12-07T16:18:07;8.05;;;5.65;;
76157;SDS011;64907;51.574;6.502;2022-12-07T16:20:32;10.63;;;5.65;;
76157;SDS011;64907;51.574;6.502;2022-12-07T16:22:58;13.70;;;5.63;;
76157;SDS011;64907;51.574;6.502;2022-12-07T16:25:23;8.73;;;6.00;;
76157;SDS011;64907;51.574;6.502;2022-12-07T16:27:48;11.48;;;5.35;;
76157;SDS011;64907;51.574;6.502;2022-12-07T16:30:15;13.53;;;6.20;;
76157;SDS011;64907;51.574;6.502;2022-12-07T16:32:41;7.97;;;5.40;;
76157;SDS011;64907;51.574;6.502;2022-12-07T16:35:06;7.65;;;5.35;;
76157;SDS011;64907;51.574;6.502;2022-12-07T16:37:32;10.00;;;5.28;;
76157;SDS011;64907;51.574;6.502;2022-12-07T16:39:57;8.18;;;6.07;;
76157;SDS011;64907;51.574;6.502;2022-12-07T16:42:22;5.65;;;5.07;;
76157;SDS011;64907;51.574;6.502;2022-12-07T16:44:47;13.10;;;5.43;;
76157;SDS011;64907;51.574;6.502;2022-12-07T16:47:12;10.68;;;5.60;;